sensor_id;sensor_type;location;lat;lon;timestamp;P1;durP1;ratioP1;P2;durP2;ratioP2
61572;SDS011;47465;43.094;12.434;2023-10-19T00:02:23;12.07;;;7.20;;
61572;SDS011;47465;43.094;12.434;2023-10-19T00:04:49;11.68;;;6.88;;
61572;SDS011;47465;43.094;12.434;2023-10-19T00:07:15;12.48;;;6.05;;
61572;SDS011;47465;43.094;12.434;2023-10-19T00:09:41;13.07;;;7.35;;
61572;SDS011;47465;43.094;12.434;2023-10-19T00:12:12;17.23;;;7.90;;
61572;SDS011;47465;43.094;12.434;2023-10-19T00:14:41;11.07;;;6.32;;
61572;SDS011;47465;43.094;12.434;2023-10-19T00:17:07;11.77;;;6.53;;
61572;SDS011;47465;43.094;12.434;2023-10-19T00:19:36;14.48;;;7.55;;
61572;SDS011;47465;43.094;12.434;2023-10-19T00:22:07;18.90;;;7.68;;
61572;SDS011;47465;43.094;12.434;2023-10-19T00:24:34;14.48;;;7.75;;
61572;SDS011;47465;43.094;12.434;2023-10-19T00:27:00;13.52;;;7.60;;
61572;SDS011;47465;43.094;12.434;2023-10-19T00:29:34;13.05;;;6.75;;
61572;SDS011;47465;43.094;12.434;2023-10-19T00:32:05;11.93;;;6.75;;
61572;SDS011;47465;43.094;12.434;2023-10-19T00:34:38;12.52;;;7.30;;
61572;SDS011;47465;43.094;12.434;2023-10-19T00:37:04;12.48;;;7.43;;
61572;SDS011;47465;43.094;12.434;2023-10-19T00:39:34;10.55;;;5.88;;
61572;SDS011;47465;43.094;12.434;2023-10-19T00:42:34;11.55;;;5.43;;
61572;SDS011;47465;43.094;12.434;2023-10-19T00:45:04;11.43;;;5.55;;
61572;SDS011;47465;43.094;12.434;2023-10-19T00:47:32;8.15;;;4.82;;
61572;SDS011;47465;43.094;12.434;2023-10-19T00:50:05;9.85;;;5.03;;
61572;SDS011;47465;43.094;12.434;2023-10-19T00:52:39;8.77;;;4.78;;
61572;SDS011;47465;43.094;12.434;2023-10-19T00:55:11;9.20;;;5.00;;
61572;SDS011;47465;43.094;12.434;2023-10-19T00:57:41;10.73;;;5.50;;
61572;SDS011;47465;43.094;12.434;2023-10-19T01:00:14;10.32;;;5.15;;
61572;SDS011;47465;43.094;12.434;2023-10-19T01:02:55;9.15;;;5.45;;
61572;SDS011;47465;43.094;12.434;2023-10-19T01:05:25;10.70;;;5.53;;
61572;SDS011;47465;43.094;12.434;2023-10-19T01:07:57;10.65;;;5.60;;
61572;SDS011;47465;43.094;12.434;2023-10-19T01:10:26;8.52;;;5.63;;
61572;SDS011;47465;43.094;12.434;2023-10-19T01:12:55;9.10;;;4.82;;
61572;SDS011;47465;43.094;12.434;2023-10-19T01:15:24;9.32;;;4.97;;
61572;SDS011;47465;43.094;12.434;2023-10-19T01:18:12;10.13;;;5.03;;
61572;SDS011;47465;43.094;12.434;2023-10-19T01:20:39;12.05;;;5.38;;
61572;SDS011;47465;43.094;12.434;2023-10-19T01:23:40;10.70;;;5.43;;
61572;SDS011;47465;43.094;12.434;2023-10-19T01:26:06;10.82;;;5.55;;
61572;SDS011;47465;43.094;12.434;2023-10-19T01:28:34;11.93;;;4.72;;
61572;SDS011;47465;43.094;12.434;2023-10-19T01:31:48;14.00;;;5.28;;
61572;SDS011;47465;43.094;12.434;2023-10-19T01:34:21;11.15;;;5.63;;
61572;SDS011;47465;43.094;12.434;2023-10-19T01:36:47;13.15;;;5.40;;
61572;SDS011;47465;43.094;12.434;2023-10-19T01:39:15;12.80;;;5.82;;
61572;SDS011;47465;43.094;12.434;2023-10-19T01:41:44;14.65;;;5.18;;
61572;SDS011;47465;43.094;12.434;2023-10-19T01:44:10;13.00;;;6.50;;
61572;SDS011;47465;43.094;12.434;2023-10-19T01:46:41;11.07;;;6.13;;
61572;SDS011;47465;43.094;12.434;2023-10-19T01:49:10;13.05;;;5.38;;
61572;SDS011;47465;43.094;12.434;2023-10-19T01:51:36;11.02;;;5.97;;
61572;SDS011;47465;43.094;12.434;2023-10-19T01:54:04;10.40;;;5.97;;
61572;SDS011;47465;43.094;12.434;2023-10-19T01:56:31;9.82;;;5.22;;
61572;SDS011;47465;43.094;12.434;2023-10-19T01:59:00;12.07;;;5.53;;
61572;SDS011;47465;43.094;12.434;2023-10-19T02:01:27;12.80;;;6.22;;
61572;SDS011;47465;43.094;12.434;2023-10-19T02:04:13;14.60;;;6.20;;
61572;SDS011;47465;43.094;12.434;2023-10-19T02:06:39;9.70;;;5.82;;
61572;SDS011;47465;43.094;12.434;2023-10-19T02:09:06;12.00;;;6.00;;
61572;SDS011;47465;43.094;12.434;2023-10-19T02:11:39;12.85;;;5.38;;
61572;SDS011;47465;43.094;12.434;2023-10-19T02:14:07;12.88;;;7.20;;
61572;SDS011;47465;43.094;12.434;2023-10-19T02:16:41;13.52;;;6.57;;
61572;SDS011;47465;43.094;12.434;2023-10-19T02:19:08;13.80;;;6.55;;
61572;SDS011;47465;43.094;12.434;2023-10-19T02:21:36;14.90;;;6.00;;
61572;SDS011;47465;43.094;12.434;2023-10-19T02:24:05;13.02;;;6.55;;
61572;SDS011;47465;43.094;12.434;2023-10-19T02:26:33;11.63;;;5.50;;
61572;SDS011;47465;43.094;12.434;2023-10-19T02:28:59;11.73;;;5.85;;
61572;SDS011;47465;43.094;12.434;2023-10-19T02:31:25;10.88;;;5.70;;
61572;SDS011;47465;43.094;12.434;2023-10-19T02:33:52;8.90;;;5.53;;
61572;SDS011;47465;43.094;12.434;2023-10-19T02:36:26;9.43;;;5.72;;
61572;SDS011;47465;43.094;12.434;2023-10-19T02:38:56;13.63;;;6.60;;
61572;SDS011;47465;43.094;12.434;2023-10-19T02:41:25;10.77;;;5.63;;
61572;SDS011;47465;43.094;12.434;2023-10-19T02:43:52;17.02;;;6.43;;
61572;SDS011;47465;43.094;12.434;2023-10-19T02:47:00;15.43;;;6.30;;
61572;SDS011;47465;43.094;12.434;2023-10-19T02:49:31;12.50;;;6.32;;
61572;SDS011;47465;43.094;12.434;2023-10-19T02:51:57;14.45;;;5.90;;
61572;SDS011;47465;43.094;12.434;2023-10-19T02:54:29;12.07;;;5.78;;
61572;SDS011;47465;43.094;12.434;2023-10-19T02:56:58;10.82;;;5.70;;
61572;SDS011;47465;43.094;12.434;2023-10-19T02:59:25;12.43;;;5.38;;
61572;SDS011;47465;43.094;12.434;2023-10-19T03:01:54;14.60;;;7.18;;
61572;SDS011;47465;43.094;12.434;2023-10-19T03:04:28;15.93;;;7.03;;
61572;SDS011;47465;43.094;12.434;2023-10-19T03:06:54;16.42;;;7.03;;
61572;SDS011;47465;43.094;12.434;2023-10-19T03:09:21;15.38;;;6.00;;
61572;SDS011;47465;43.094;12.434;2023-10-19T03:11:49;10.93;;;5.63;;
61572;SDS011;47465;43.094;12.434;2023-10-19T03:14:18;10.05;;;5.88;;
61572;SDS011;47465;43.094;12.434;2023-10-19T03:16:44;12.90;;;5.63;;
61572;SDS011;47465;43.094;12.434;2023-10-19T03:19:11;15.68;;;5.20;;
61572;SDS011;47465;43.094;12.434;2023-10-19T03:21:39;12.25;;;4.93;;
61572;SDS011;47465;43.094;12.434;2023-10-19T03:24:07;8.18;;;4.70;;
61572;SDS011;47465;43.094;12.434;2023-10-19T03:26:48;11.20;;;4.03;;
61572;SDS011;47465;43.094;12.434;2023-10-19T03:29:14;8.52;;;3.97;;
61572;SDS011;47465;43.094;12.434;2023-10-19T03:31:40;9.15;;;4.13;;
61572;SDS011;47465;43.094;12.434;2023-10-19T03:36:38;10.20;;;3.67;;
61572;SDS011;47465;43.094;12.434;2023-10-19T03:39:05;9.88;;;3.83;;
61572;SDS011;47465;43.094;12.434;2023-10-19T03:41:39;9.20;;;4.53;;
61572;SDS011;47465;43.094;12.434;2023-10-19T03:44:07;7.30;;;3.35;;
61572;SDS011;47465;43.094;12.434;2023-10-19T03:46:38;8.15;;;3.85;;
61572;SDS011;47465;43.094;12.434;2023-10-19T03:49:18;7.35;;;4.07;;
61572;SDS011;47465;43.094;12.434;2023-10-19T03:51:46;8.70;;;3.65;;
61572;SDS011;47465;43.094;12.434;2023-10-19T03:54:23;8.30;;;4.25;;
61572;SDS011;47465;43.094;12.434;2023-10-19T03:56:50;10.93;;;3.78;;
61572;SDS011;47465;43.094;12.434;2023-10-19T03:59:16;7.60;;;3.80;;
61572;SDS011;47465;43.094;12.434;2023-10-19T04:01:42;7.97;;;3.85;;
61572;SDS011;47465;43.094;12.434;2023-10-19T04:04:08;9.88;;;4.15;;
61572;SDS011;47465;43.094;12.434;2023-10-19T04:06:35;7.93;;;3.75;;
61572;SDS011;47465;43.094;12.434;2023-10-19T04:09:03;8.27;;;4.18;;
61572;SDS011;47465;43.094;12.434;2023-10-19T04:11:31;9.07;;;4.18;;
61572;SDS011;47465;43.094;12.434;2023-10-19T04:13:58;9.55;;;4.50;;
61572;SDS011;47465;43.094;12.434;2023-10-19T04:16:28;8.75;;;4.45;;
61572;SDS011;47465;43.094;12.434;2023-10-19T04:18:54;10.20;;;4.78;;
61572;SDS011;47465;43.094;12.434;2023-10-19T04:21:20;10.27;;;4.70;;
61572;SDS011;47465;43.094;12.434;2023-10-19T04:23:46;9.35;;;4.68;;
61572;SDS011;47465;43.094;12.434;2023-10-19T04:26:13;8.50;;;4.15;;
61572;SDS011;47465;43.094;12.434;2023-10-19T04:28:43;15.15;;;5.22;;
61572;SDS011;47465;43.094;12.434;2023-10-19T04:31:14;12.07;;;4.70;;
61572;SDS011;47465;43.094;12.434;2023-10-19T04:33:41;7.57;;;3.97;;
61572;SDS011;47465;43.094;12.434;2023-10-19T04:36:11;8.73;;;4.43;;
61572;SDS011;47465;43.094;12.434;2023-10-19T04:38:38;11.65;;;4.50;;
61572;SDS011;47465;43.094;12.434;2023-10-19T04:41:05;10.50;;;3.58;;
61572;SDS011;47465;43.094;12.434;2023-10-19T04:43:34;7.35;;;4.03;;
61572;SDS011;47465;43.094;12.434;2023-10-19T04:46:04;9.02;;;3.85;;
61572;SDS011;47465;43.094;12.434;2023-10-19T04:48:34;9.98;;;3.95;;
61572;SDS011;47465;43.094;12.434;2023-10-19T04:51:01;7.78;;;4.28;;
61572;SDS011;47465;43.094;12.434;2023-10-19T04:53:29;8.23;;;3.67;;
61572;SDS011;47465;43.094;12.434;2023-10-19T04:55:55;9.88;;;3.92;;
61572;SDS011;47465;43.094;12.434;2023-10-19T04:58:21;9.15;;;4.00;;
61572;SDS011;47465;43.094;12.434;2023-10-19T05:00:49;6.90;;;3.53;;
61572;SDS011;47465;43.094;12.434;2023-10-19T05:03:14;11.05;;;3.85;;
61572;SDS011;47465;43.094;12.434;2023-10-19T05:05:43;10.20;;;4.03;;
61572;SDS011;47465;43.094;12.434;2023-10-19T05:08:09;9.95;;;3.97;;
61572;SDS011;47465;43.094;12.434;2023-10-19T05:10:35;8.40;;;3.55;;
61572;SDS011;47465;43.094;12.434;2023-10-19T05:13:02;7.80;;;4.40;;
61572;SDS011;47465;43.094;12.434;2023-10-19T05:15:28;8.85;;;3.85;;
61572;SDS011;47465;43.094;12.434;2023-10-19T05:17:56;7.03;;;2.90;;
61572;SDS011;47465;43.094;12.434;2023-10-19T05:20:22;7.43;;;3.30;;
61572;SDS011;47465;43.094;12.434;2023-10-19T05:22:49;8.65;;;3.35;;
61572;SDS011;47465;43.094;12.434;2023-10-19T05:25:15;14.13;;;4.32;;
61572;SDS011;47465;43.094;12.434;2023-10-19T05:27:41;6.60;;;3.67;;
61572;SDS011;47465;43.094;12.434;2023-10-19T05:30:08;7.80;;;3.28;;
61572;SDS011;47465;43.094;12.434;2023-10-19T05:32:35;8.02;;;3.10;;
61572;SDS011;47465;43.094;12.434;2023-10-19T05:35:03;9.38;;;4.40;;
61572;SDS011;47465;43.094;12.434;2023-10-19T05:37:30;8.48;;;3.97;;
61572;SDS011;47465;43.094;12.434;2023-10-19T05:39:56;9.65;;;4.20;;
61572;SDS011;47465;43.094;12.434;2023-10-19T05:42:22;8.40;;;4.00;;
61572;SDS011;47465;43.094;12.434;2023-10-19T05:44:48;6.43;;;3.67;;
61572;SDS011;47465;43.094;12.434;2023-10-19T05:47:14;7.60;;;3.95;;
61572;SDS011;47465;43.094;12.434;2023-10-19T05:49:40;11.02;;;4.53;;
61572;SDS011;47465;43.094;12.434;2023-10-19T05:52:07;6.30;;;3.50;;
61572;SDS011;47465;43.094;12.434;2023-10-19T05:54:33;9.05;;;3.67;;
61572;SDS011;47465;43.094;12.434;2023-10-19T05:56:59;9.02;;;4.60;;
61572;SDS011;47465;43.094;12.434;2023-10-19T05:59:25;7.97;;;3.58;;
61572;SDS011;47465;43.094;12.434;2023-10-19T06:01:51;8.65;;;3.80;;
61572;SDS011;47465;43.094;12.434;2023-10-19T06:04:18;9.45;;;4.45;;
61572;SDS011;47465;43.094;12.434;2023-10-19T06:06:43;7.90;;;4.35;;
61572;SDS011;47465;43.094;12.434;2023-10-19T06:09:11;8.80;;;3.90;;
61572;SDS011;47465;43.094;12.434;2023-10-19T06:11:37;7.82;;;3.30;;
61572;SDS011;47465;43.094;12.434;2023-10-19T06:14:03;10.52;;;3.95;;
61572;SDS011;47465;43.094;12.434;2023-10-19T06:16:32;9.70;;;3.67;;
61572;SDS011;47465;43.094;12.434;2023-10-19T06:18:58;10.18;;;3.83;;
61572;SDS011;47465;43.094;12.434;2023-10-19T06:21:24;16.42;;;4.97;;
61572;SDS011;47465;43.094;12.434;2023-10-19T06:23:50;12.13;;;4.95;;
61572;SDS011;47465;43.094;12.434;2023-10-19T06:26:19;11.27;;;4.45;;
61572;SDS011;47465;43.094;12.434;2023-10-19T06:28:45;9.10;;;4.05;;
61572;SDS011;47465;43.094;12.434;2023-10-19T06:31:11;7.93;;;4.43;;
61572;SDS011;47465;43.094;12.434;2023-10-19T06:33:37;10.68;;;4.15;;
61572;SDS011;47465;43.094;12.434;2023-10-19T06:36:06;11.13;;;4.97;;
61572;SDS011;47465;43.094;12.434;2023-10-19T06:38:32;11.45;;;3.92;;
61572;SDS011;47465;43.094;12.434;2023-10-19T06:40:59;10.32;;;4.25;;
61572;SDS011;47465;43.094;12.434;2023-10-19T06:43:29;7.50;;;3.72;;
61572;SDS011;47465;43.094;12.434;2023-10-19T06:45:56;9.82;;;4.03;;
61572;SDS011;47465;43.094;12.434;2023-10-19T06:48:22;11.77;;;3.42;;
61572;SDS011;47465;43.094;12.434;2023-10-19T06:50:48;5.53;;;3.50;;
61572;SDS011;47465;43.094;12.434;2023-10-19T06:53:14;10.50;;;4.10;;
61572;SDS011;47465;43.094;12.434;2023-10-19T06:55:39;11.10;;;3.65;;
61572;SDS011;47465;43.094;12.434;2023-10-19T06:58:05;11.18;;;3.65;;
61572;SDS011;47465;43.094;12.434;2023-10-19T07:00:34;7.13;;;2.90;;
61572;SDS011;47465;43.094;12.434;2023-10-19T07:03:02;7.15;;;3.65;;
61572;SDS011;47465;43.094;12.434;2023-10-19T07:05:29;6.75;;;2.85;;
61572;SDS011;47465;43.094;12.434;2023-10-19T07:07:55;8.52;;;3.47;;
61572;SDS011;47465;43.094;12.434;2023-10-19T07:10:22;8.75;;;4.18;;
61572;SDS011;47465;43.094;12.434;2023-10-19T07:12:50;6.85;;;3.30;;
61572;SDS011;47465;43.094;12.434;2023-10-19T07:15:18;7.35;;;3.65;;
61572;SDS011;47465;43.094;12.434;2023-10-19T07:17:46;8.70;;;3.10;;
61572;SDS011;47465;43.094;12.434;2023-10-19T07:20:14;8.77;;;3.75;;
61572;SDS011;47465;43.094;12.434;2023-10-19T07:23:17;8.20;;;3.45;;
61572;SDS011;47465;43.094;12.434;2023-10-19T07:25:44;7.93;;;3.40;;
61572;SDS011;47465;43.094;12.434;2023-10-19T07:28:11;11.98;;;3.25;;
61572;SDS011;47465;43.094;12.434;2023-10-19T07:30:38;9.77;;;4.32;;
61572;SDS011;47465;43.094;12.434;2023-10-19T07:33:05;10.77;;;3.20;;
61572;SDS011;47465;43.094;12.434;2023-10-19T07:35:34;9.00;;;3.63;;
61572;SDS011;47465;43.094;12.434;2023-10-19T07:38:04;9.77;;;3.00;;
61572;SDS011;47465;43.094;12.434;2023-10-19T07:40:34;6.95;;;3.72;;
61572;SDS011;47465;43.094;12.434;2023-10-19T07:43:03;9.15;;;3.15;;
61572;SDS011;47465;43.094;12.434;2023-10-19T07:45:29;7.75;;;3.58;;
61572;SDS011;47465;43.094;12.434;2023-10-19T07:47:56;9.73;;;3.25;;
61572;SDS011;47465;43.094;12.434;2023-10-19T07:50:23;8.05;;;3.25;;
61572;SDS011;47465;43.094;12.434;2023-10-19T07:52:49;8.93;;;3.92;;
61572;SDS011;47465;43.094;12.434;2023-10-19T07:55:16;12.25;;;4.03;;
61572;SDS011;47465;43.094;12.434;2023-10-19T07:57:45;9.95;;;4.38;;
61572;SDS011;47465;43.094;12.434;2023-10-19T08:00:15;11.02;;;4.35;;
61572;SDS011;47465;43.094;12.434;2023-10-19T08:02:42;13.90;;;4.82;;
61572;SDS011;47465;43.094;12.434;2023-10-19T08:05:12;13.38;;;4.00;;
61572;SDS011;47465;43.094;12.434;2023-10-19T08:07:38;12.68;;;4.35;;
61572;SDS011;47465;43.094;12.434;2023-10-19T08:10:08;11.52;;;4.28;;
61572;SDS011;47465;43.094;12.434;2023-10-19T08:12:35;15.70;;;5.20;;
61572;SDS011;47465;43.094;12.434;2023-10-19T08:15:04;11.52;;;3.60;;
61572;SDS011;47465;43.094;12.434;2023-10-19T08:17:32;8.77;;;3.42;;
61572;SDS011;47465;43.094;12.434;2023-10-19T08:19:59;12.77;;;4.15;;
61572;SDS011;47465;43.094;12.434;2023-10-19T08:22:28;12.88;;;4.03;;
61572;SDS011;47465;43.094;12.434;2023-10-19T08:24:55;10.43;;;3.67;;
61572;SDS011;47465;43.094;12.434;2023-10-19T08:27:21;9.55;;;3.60;;
61572;SDS011;47465;43.094;12.434;2023-10-19T08:29:49;12.52;;;5.00;;
61572;SDS011;47465;43.094;12.434;2023-10-19T08:32:17;10.55;;;4.28;;
61572;SDS011;47465;43.094;12.434;2023-10-19T08:34:43;10.55;;;4.07;;
61572;SDS011;47465;43.094;12.434;2023-10-19T08:37:09;13.85;;;4.75;;
61572;SDS011;47465;43.094;12.434;2023-10-19T08:39:36;12.90;;;3.90;;
61572;SDS011;47465;43.094;12.434;2023-10-19T08:42:02;12.20;;;4.03;;
61572;SDS011;47465;43.094;12.434;2023-10-19T08:44:29;14.38;;;4.70;;
61572;SDS011;47465;43.094;12.434;2023-10-19T08:46:56;9.43;;;4.28;;
61572;SDS011;47465;43.094;12.434;2023-10-19T08:49:24;14.00;;;4.85;;
61572;SDS011;47465;43.094;12.434;2023-10-19T08:54:19;13.63;;;4.10;;
61572;SDS011;47465;43.094;12.434;2023-10-19T08:56:46;16.35;;;6.03;;
61572;SDS011;47465;43.094;12.434;2023-10-19T08:59:12;12.95;;;4.10;;
61572;SDS011;47465;43.094;12.434;2023-10-19T09:01:40;12.93;;;4.10;;
61572;SDS011;47465;43.094;12.434;2023-10-19T09:04:09;9.90;;;4.55;;
61572;SDS011;47465;43.094;12.434;2023-10-19T09:06:38;10.68;;;4.20;;
61572;SDS011;47465;43.094;12.434;2023-10-19T09:09:07;16.55;;;4.22;;
61572;SDS011;47465;43.094;12.434;2023-10-19T09:11:34;11.25;;;3.78;;
61572;SDS011;47465;43.094;12.434;2023-10-19T09:14:01;11.98;;;3.85;;
61572;SDS011;47465;43.094;12.434;2023-10-19T09:16:29;12.35;;;3.78;;
61572;SDS011;47465;43.094;12.434;2023-10-19T09:18:56;14.07;;;4.38;;
61572;SDS011;47465;43.094;12.434;2023-10-19T09:21:27;11.68;;;5.15;;
61572;SDS011;47465;43.094;12.434;2023-10-19T09:23:55;15.77;;;4.32;;
61572;SDS011;47465;43.094;12.434;2023-10-19T09:26:23;14.63;;;4.50;;
61572;SDS011;47465;43.094;12.434;2023-10-19T09:28:51;9.60;;;3.47;;
61572;SDS011;47465;43.094;12.434;2023-10-19T09:31:23;15.75;;;3.83;;
61572;SDS011;47465;43.094;12.434;2023-10-19T09:33:50;10.02;;;3.70;;
61572;SDS011;47465;43.094;12.434;2023-10-19T09:36:24;10.80;;;4.15;;
61572;SDS011;47465;43.094;12.434;2023-10-19T09:39:14;13.70;;;3.92;;
61572;SDS011;47465;43.094;12.434;2023-10-19T09:41:41;6.55;;;3.10;;
61572;SDS011;47465;43.094;12.434;2023-10-19T09:44:09;13.40;;;3.80;;
61572;SDS011;47465;43.094;12.434;2023-10-19T09:46:38;9.18;;;3.28;;
61572;SDS011;47465;43.094;12.434;2023-10-19T09:49:05;15.85;;;3.50;;
61572;SDS011;47465;43.094;12.434;2023-10-19T09:51:33;11.02;;;3.50;;
61572;SDS011;47465;43.094;12.434;2023-10-19T09:54:01;15.88;;;3.63;;
61572;SDS011;47465;43.094;12.434;2023-10-19T09:56:42;11.40;;;3.65;;
61572;SDS011;47465;43.094;12.434;2023-10-19T09:59:13;12.07;;;3.47;;
61572;SDS011;47465;43.094;12.434;2023-10-19T10:04:38;11.00;;;3.40;;
61572;SDS011;47465;43.094;12.434;2023-10-19T10:07:05;8.43;;;3.38;;
61572;SDS011;47465;43.094;12.434;2023-10-19T10:09:32;11.68;;;3.60;;
61572;SDS011;47465;43.094;12.434;2023-10-19T10:12:19;15.48;;;3.83;;
61572;SDS011;47465;43.094;12.434;2023-10-19T10:14:54;12.57;;;3.28;;
61572;SDS011;47465;43.094;12.434;2023-10-19T10:17:24;11.38;;;3.85;;
61572;SDS011;47465;43.094;12.434;2023-10-19T10:19:53;12.07;;;4.00;;
61572;SDS011;47465;43.094;12.434;2023-10-19T10:22:21;12.82;;;3.88;;
61572;SDS011;47465;43.094;12.434;2023-10-19T10:24:48;13.07;;;3.67;;
61572;SDS011;47465;43.094;12.434;2023-10-19T10:27:22;12.20;;;3.30;;
61572;SDS011;47465;43.094;12.434;2023-10-19T10:29:58;12.30;;;4.18;;
61572;SDS011;47465;43.094;12.434;2023-10-19T10:32:43;10.85;;;3.28;;
61572;SDS011;47465;43.094;12.434;2023-10-19T10:35:10;8.70;;;4.00;;
61572;SDS011;47465;43.094;12.434;2023-10-19T10:37:56;10.57;;;3.67;;
61572;SDS011;47465;43.094;12.434;2023-10-19T10:40:23;12.98;;;3.65;;
61572;SDS011;47465;43.094;12.434;2023-10-19T10:43:05;12.85;;;3.83;;
61572;SDS011;47465;43.094;12.434;2023-10-19T10:45:36;12.68;;;3.70;;
61572;SDS011;47465;43.094;12.434;2023-10-19T10:48:03;13.45;;;4.07;;
61572;SDS011;47465;43.094;12.434;2023-10-19T10:50:32;10.25;;;3.58;;
61572;SDS011;47465;43.094;12.434;2023-10-19T10:52:58;11.25;;;3.78;;
61572;SDS011;47465;43.094;12.434;2023-10-19T10:55:25;12.48;;;3.95;;
61572;SDS011;47465;43.094;12.434;2023-10-19T10:57:51;12.35;;;3.88;;
61572;SDS011;47465;43.094;12.434;2023-10-19T11:00:19;12.60;;;4.35;;
61572;SDS011;47465;43.094;12.434;2023-10-19T11:02:46;9.90;;;3.50;;
61572;SDS011;47465;43.094;12.434;2023-10-19T11:05:24;11.73;;;3.47;;
61572;SDS011;47465;43.094;12.434;2023-10-19T11:08:03;10.55;;;3.83;;
61572;SDS011;47465;43.094;12.434;2023-10-19T11:10:32;12.50;;;3.88;;
61572;SDS011;47465;43.094;12.434;2023-10-19T11:13:42;13.70;;;4.13;;
61572;SDS011;47465;43.094;12.434;2023-10-19T11:16:10;14.40;;;4.05;;
61572;SDS011;47465;43.094;12.434;2023-10-19T11:18:48;10.52;;;3.70;;
61572;SDS011;47465;43.094;12.434;2023-10-19T11:21:15;13.20;;;3.53;;
61572;SDS011;47465;43.094;12.434;2023-10-19T11:23:43;13.32;;;3.80;;
61572;SDS011;47465;43.094;12.434;2023-10-19T11:26:16;14.88;;;4.07;;
61572;SDS011;47465;43.094;12.434;2023-10-19T11:28:45;14.07;;;4.05;;
61572;SDS011;47465;43.094;12.434;2023-10-19T11:31:18;9.95;;;4.15;;
61572;SDS011;47465;43.094;12.434;2023-10-19T11:33:45;11.45;;;3.92;;
61572;SDS011;47465;43.094;12.434;2023-10-19T11:36:18;13.75;;;4.60;;
61572;SDS011;47465;43.094;12.434;2023-10-19T11:38:47;15.90;;;4.57;;
61572;SDS011;47465;43.094;12.434;2023-10-19T11:41:15;11.52;;;4.30;;
61572;SDS011;47465;43.094;12.434;2023-10-19T11:43:42;10.07;;;3.65;;
61572;SDS011;47465;43.094;12.434;2023-10-19T11:50:01;12.93;;;4.03;;
61572;SDS011;47465;43.094;12.434;2023-10-19T11:52:28;11.15;;;3.70;;
61572;SDS011;47465;43.094;12.434;2023-10-19T11:54:55;15.38;;;5.10;;
61572;SDS011;47465;43.094;12.434;2023-10-19T11:57:21;8.88;;;3.28;;
61572;SDS011;47465;43.094;12.434;2023-10-19T11:59:47;10.82;;;3.80;;
61572;SDS011;47465;43.094;12.434;2023-10-19T12:02:17;15.40;;;4.72;;
61572;SDS011;47465;43.094;12.434;2023-10-19T12:04:44;13.55;;;4.20;;
61572;SDS011;47465;43.094;12.434;2023-10-19T12:07:13;11.50;;;3.88;;
61572;SDS011;47465;43.094;12.434;2023-10-19T12:09:39;13.98;;;3.45;;
61572;SDS011;47465;43.094;12.434;2023-10-19T12:12:08;10.95;;;4.38;;
61572;SDS011;47465;43.094;12.434;2023-10-19T12:14:34;9.75;;;3.45;;
61572;SDS011;47465;43.094;12.434;2023-10-19T12:17:01;11.35;;;3.45;;
61572;SDS011;47465;43.094;12.434;2023-10-19T12:19:29;14.32;;;3.42;;
61572;SDS011;47465;43.094;12.434;2023-10-19T12:21:55;15.07;;;4.07;;
61572;SDS011;47465;43.094;12.434;2023-10-19T12:24:25;8.43;;;2.75;;
61572;SDS011;47465;43.094;12.434;2023-10-19T12:26:54;13.63;;;3.30;;
61572;SDS011;47465;43.094;12.434;2023-10-19T12:29:20;15.57;;;3.78;;
61572;SDS011;47465;43.094;12.434;2023-10-19T12:31:46;13.18;;;2.90;;
61572;SDS011;47465;43.094;12.434;2023-10-19T12:34:15;15.10;;;2.80;;
61572;SDS011;47465;43.094;12.434;2023-10-19T12:36:42;11.07;;;3.08;;
61572;SDS011;47465;43.094;12.434;2023-10-19T12:39:11;11.80;;;2.78;;
61572;SDS011;47465;43.094;12.434;2023-10-19T12:41:59;10.73;;;2.90;;
61572;SDS011;47465;43.094;12.434;2023-10-19T12:44:26;12.82;;;3.17;;
61572;SDS011;47465;43.094;12.434;2023-10-19T12:46:55;9.77;;;3.03;;
61572;SDS011;47465;43.094;12.434;2023-10-19T12:49:22;13.10;;;3.10;;
61572;SDS011;47465;43.094;12.434;2023-10-19T12:51:51;10.07;;;2.70;;
61572;SDS011;47465;43.094;12.434;2023-10-19T12:54:18;10.68;;;2.83;;
61572;SDS011;47465;43.094;12.434;2023-10-19T12:56:44;10.23;;;2.75;;
61572;SDS011;47465;43.094;12.434;2023-10-19T12:59:16;14.90;;;3.75;;
61572;SDS011;47465;43.094;12.434;2023-10-19T13:04:13;11.82;;;3.15;;
61572;SDS011;47465;43.094;12.434;2023-10-19T13:06:42;9.02;;;3.03;;
61572;SDS011;47465;43.094;12.434;2023-10-19T13:09:09;12.13;;;3.80;;
61572;SDS011;47465;43.094;12.434;2023-10-19T13:11:35;12.32;;;3.33;;
61572;SDS011;47465;43.094;12.434;2023-10-19T13:14:04;14.82;;;2.97;;
61572;SDS011;47465;43.094;12.434;2023-10-19T13:16:33;10.18;;;2.70;;
61572;SDS011;47465;43.094;12.434;2023-10-19T13:21:37;14.63;;;3.88;;
61572;SDS011;47465;43.094;12.434;2023-10-19T13:24:06;14.77;;;3.05;;
61572;SDS011;47465;43.094;12.434;2023-10-19T13:26:33;8.02;;;2.58;;
61572;SDS011;47465;43.094;12.434;2023-10-19T13:29:01;10.88;;;3.28;;
61572;SDS011;47465;43.094;12.434;2023-10-19T13:31:27;11.48;;;2.25;;
61572;SDS011;47465;43.094;12.434;2023-10-19T13:33:55;11.40;;;3.05;;
61572;SDS011;47465;43.094;12.434;2023-10-19T13:36:21;13.95;;;2.53;;
61572;SDS011;47465;43.094;12.434;2023-10-19T13:38:47;10.30;;;2.65;;
61572;SDS011;47465;43.094;12.434;2023-10-19T13:41:13;12.23;;;2.70;;
61572;SDS011;47465;43.094;12.434;2023-10-19T13:43:42;15.73;;;2.47;;
61572;SDS011;47465;43.094;12.434;2023-10-19T13:46:09;10.68;;;2.20;;
61572;SDS011;47465;43.094;12.434;2023-10-19T13:48:35;14.07;;;2.58;;
61572;SDS011;47465;43.094;12.434;2023-10-19T13:51:05;7.85;;;2.25;;
61572;SDS011;47465;43.094;12.434;2023-10-19T13:53:39;11.75;;;2.47;;
61572;SDS011;47465;43.094;12.434;2023-10-19T13:56:07;10.02;;;1.83;;
61572;SDS011;47465;43.094;12.434;2023-10-19T13:58:36;7.82;;;2.25;;
61572;SDS011;47465;43.094;12.434;2023-10-19T14:01:02;12.88;;;2.70;;
61572;SDS011;47465;43.094;12.434;2023-10-19T14:03:31;9.77;;;2.22;;
61572;SDS011;47465;43.094;12.434;2023-10-19T14:05:57;12.55;;;3.15;;
61572;SDS011;47465;43.094;12.434;2023-10-19T14:08:25;15.45;;;2.80;;
61572;SDS011;47465;43.094;12.434;2023-10-19T14:10:51;12.65;;;2.47;;
61572;SDS011;47465;43.094;12.434;2023-10-19T14:13:17;12.43;;;3.25;;
61572;SDS011;47465;43.094;12.434;2023-10-19T14:15:43;11.45;;;2.65;;
61572;SDS011;47465;43.094;12.434;2023-10-19T14:18:09;7.22;;;2.10;;
61572;SDS011;47465;43.094;12.434;2023-10-19T14:20:37;10.02;;;2.17;;
61572;SDS011;47465;43.094;12.434;2023-10-19T14:23:04;11.38;;;2.63;;
61572;SDS011;47465;43.094;12.434;2023-10-19T14:25:35;9.20;;;2.17;;
61572;SDS011;47465;43.094;12.434;2023-10-19T14:28:02;11.75;;;2.33;;
61572;SDS011;47465;43.094;12.434;2023-10-19T14:30:32;8.60;;;2.33;;
61572;SDS011;47465;43.094;12.434;2023-10-19T14:32:58;10.25;;;3.15;;
61572;SDS011;47465;43.094;12.434;2023-10-19T14:35:24;9.95;;;2.45;;
61572;SDS011;47465;43.094;12.434;2023-10-19T14:37:51;10.25;;;2.42;;
61572;SDS011;47465;43.094;12.434;2023-10-19T14:40:20;13.75;;;2.58;;
61572;SDS011;47465;43.094;12.434;2023-10-19T14:42:51;12.60;;;2.58;;
61572;SDS011;47465;43.094;12.434;2023-10-19T14:47:46;8.50;;;2.22;;
61572;SDS011;47465;43.094;12.434;2023-10-19T14:50:13;15.02;;;2.72;;
61572;SDS011;47465;43.094;12.434;2023-10-19T14:52:40;8.60;;;2.53;;
61572;SDS011;47465;43.094;12.434;2023-10-19T14:55:09;17.00;;;3.33;;
61572;SDS011;47465;43.094;12.434;2023-10-19T14:57:36;14.40;;;3.08;;